createdAt,value
2017-05-29T00:00:05.887Z,12.92
2017-05-29T00:02:34.736Z,24.74
2017-05-29T00:05:03.592Z,15.34
2017-05-29T00:07:32.435Z,13.58
2017-05-29T00:10:01.283Z,10.86
2017-05-29T00:12:30.136Z,9.22
2017-05-29T00:14:58.984Z,11.32
2017-05-29T00:17:27.072Z,8.62
2017-05-29T00:19:55.925Z,9.82
2017-05-29T00:22:24.774Z,10.70
2017-05-29T00:24:53.631Z,39.18
2017-05-29T00:27:21.779Z,18.58
2017-05-29T00:29:50.695Z,18.50
2017-05-29T00:32:19.534Z,13.76
2017-05-29T00:34:48.399Z,8.90
2017-05-29T00:37:17.239Z,8.18
2017-05-29T00:39:46.094Z,8.30
2017-05-29T00:42:14.935Z,9.10
2017-05-29T00:44:43.770Z,9.98
2017-05-29T00:47:12.628Z,15.12
2017-05-29T00:52:15.948Z,21.98
2017-05-29T00:54:44.787Z,14.90
2017-05-29T00:57:13.659Z,13.20
2017-05-29T00:59:42.512Z,39.86
2017-05-29T01:02:11.363Z,28.18
2017-05-29T01:04:40.220Z,33.72
2017-05-29T01:07:09.076Z,29.46
2017-05-29T01:09:37.932Z,23.12
2017-05-29T01:12:06.783Z,14.18
2017-05-29T01:14:35.635Z,9.74
2017-05-29T01:17:04.475Z,9.10
2017-05-29T01:19:33.319Z,9.18
2017-05-29T01:22:02.208Z,10.00
2017-05-29T01:24:31.046Z,8.78
2017-05-29T01:26:59.907Z,8.86
2017-05-29T01:29:28.747Z,8.60
2017-05-29T01:31:57.616Z,8.70
2017-05-29T01:34:26.459Z,9.14
2017-05-29T01:36:55.306Z,9.70
2017-05-29T01:39:24.159Z,9.08
2017-05-29T01:41:52.236Z,8.44
2017-05-29T01:44:21.101Z,8.62
2017-05-29T01:46:49.932Z,8.76
2017-05-29T01:49:18.786Z,8.50
2017-05-29T01:51:47.629Z,8.98
2017-05-29T01:54:16.477Z,8.66
2017-05-29T01:56:44.564Z,9.52
2017-05-29T01:59:13.414Z,9.22
2017-05-29T02:01:42.264Z,8.94
2017-05-29T02:04:11.107Z,8.46
2017-05-29T02:06:39.963Z,9.74
2017-05-29T02:09:08.812Z,9.14
2017-05-29T02:11:37.656Z,8.46
2017-05-29T02:14:06.543Z,8.20
2017-05-29T02:16:35.384Z,9.32
2017-05-29T02:19:03.481Z,9.18
2017-05-29T02:21:32.435Z,10.38
2017-05-29T02:24:01.288Z,10.98
2017-05-29T02:26:30.139Z,10.92
2017-05-29T02:28:58.219Z,11.60
2017-05-29T02:31:27.072Z,11.58
2017-05-29T02:33:55.925Z,12.74
2017-05-29T02:36:24.775Z,9.36
2017-05-29T02:38:53.619Z,11.42
2017-05-29T02:41:22.478Z,12.34
2017-05-29T02:43:51.329Z,10.44
2017-05-29T02:46:20.170Z,11.66
2017-05-29T02:48:49.020Z,11.22
2017-05-29T02:51:17.992Z,10.42
2017-05-29T02:53:46.844Z,11.90
2017-05-29T02:56:15.691Z,11.72
2017-05-29T02:58:44.547Z,10.98
2017-05-29T03:01:13.404Z,10.20
2017-05-29T03:03:41.482Z,9.92
2017-05-29T03:06:10.878Z,10.20
2017-05-29T03:08:39.726Z,10.88
2017-05-29T03:11:08.587Z,12.10
2017-05-29T03:13:37.435Z,11.14
2017-05-29T03:16:06.425Z,10.84
2017-05-29T03:18:35.304Z,10.30
2017-05-29T03:21:04.147Z,10.50
2017-05-29T03:23:32.995Z,11.38
2017-05-29T03:26:01.876Z,10.30
2017-05-29T03:28:29.970Z,10.48
2017-05-29T03:30:58.823Z,11.18
2017-05-29T03:33:27.700Z,10.30
2017-05-29T03:35:56.560Z,11.30
2017-05-29T03:38:25.410Z,9.66
2017-05-29T03:40:54.256Z,9.74
2017-05-29T03:43:23.119Z,9.84
2017-05-29T03:45:51.977Z,10.74
2017-05-29T03:48:20.855Z,10.36
2017-05-29T03:50:49.711Z,10.42
2017-05-29T03:53:18.567Z,11.12
2017-05-29T03:55:47.412Z,26.58
2017-05-29T03:58:16.309Z,13.72
2017-05-29T04:00:45.155Z,17.70
2017-05-29T04:03:14.014Z,17.80
2017-05-29T04:05:42.856Z,17.50
2017-05-29T04:08:11.736Z,10.84
2017-05-29T04:10:40.583Z,10.14
2017-05-29T04:13:09.439Z,10.76
2017-05-29T04:15:38.306Z,10.14
2017-05-29T04:18:06.384Z,10.00
2017-05-29T04:20:35.252Z,11.90
2017-05-29T04:23:04.104Z,12.48
2017-05-29T04:25:32.959Z,11.22
2017-05-29T04:28:01.807Z,11.70
2017-05-29T04:30:30.657Z,11.38
2017-05-29T04:32:59.508Z,11.66
2017-05-29T04:35:28.371Z,12.66
2017-05-29T04:37:57.236Z,12.88
2017-05-29T04:40:26.087Z,10.66
2017-05-29T04:42:54.196Z,10.58
2017-05-29T04:45:23.036Z,10.56
2017-05-29T04:47:51.123Z,10.14
2017-05-29T04:50:19.975Z,9.16
2017-05-29T04:52:48.815Z,9.90
2017-05-29T04:55:17.668Z,8.48
2017-05-29T04:57:45.752Z,9.12
2017-05-29T05:00:14.690Z,9.84
2017-05-29T05:02:43.571Z,9.34
2017-05-29T05:05:12.430Z,10.00
2017-05-29T05:07:41.296Z,11.20
2017-05-29T05:10:10.227Z,11.40
2017-05-29T05:12:38.321Z,10.16
2017-05-29T05:15:07.175Z,10.18
2017-05-29T05:17:35.281Z,10.40
2017-05-29T05:20:04.135Z,9.68
2017-05-29T05:22:32.992Z,11.18
2017-05-29T05:25:01.859Z,9.62
2017-05-29T05:27:30.715Z,10.78
2017-05-29T05:29:58.795Z,9.58
2017-05-29T05:32:27.651Z,10.70
2017-05-29T05:34:56.539Z,10.06
2017-05-29T05:37:25.375Z,8.88
2017-05-29T05:39:54.235Z,9.64
2017-05-29T05:42:23.101Z,9.30
2017-05-29T05:44:52.060Z,10.18
2017-05-29T05:47:20.920Z,11.04
2017-05-29T05:49:49.000Z,10.48
2017-05-29T05:52:17.887Z,9.82
2017-05-29T05:54:46.727Z,10.12
2017-05-29T05:57:15.576Z,10.54
2017-05-29T05:59:43.681Z,10.78
2017-05-29T06:02:12.527Z,9.34
2017-05-29T06:04:41.389Z,9.88
2017-05-29T06:07:10.236Z,9.50
2017-05-29T06:09:39.104Z,9.42
2017-05-29T06:12:07.943Z,10.40
2017-05-29T06:14:36.787Z,9.70
2017-05-29T06:17:05.658Z,10.66
2017-05-29T06:19:34.511Z,10.16
2017-05-29T06:22:03.367Z,8.96
2017-05-29T06:24:32.199Z,11.50
2017-05-29T06:27:01.056Z,10.62
2017-05-29T06:29:29.918Z,10.74
2017-05-29T06:31:58.764Z,11.76
2017-05-29T06:34:27.619Z,12.50
2017-05-29T06:36:56.466Z,10.44
2017-05-29T06:39:25.323Z,10.08
2017-05-29T06:41:54.180Z,10.88
2017-05-29T06:44:23.048Z,10.20
2017-05-29T06:46:51.883Z,9.80
2017-05-29T06:49:20.883Z,11.14
2017-05-29T06:51:49.744Z,9.42
2017-05-29T06:54:18.590Z,10.48
2017-05-29T06:56:47.435Z,9.32
2017-05-29T06:59:16.285Z,9.02
2017-05-29T07:01:45.176Z,9.62
2017-05-29T07:04:14.031Z,10.00
2017-05-29T07:06:42.891Z,9.82
2017-05-29T07:09:10.992Z,10.56
2017-05-29T07:11:39.072Z,10.38
2017-05-29T07:14:07.946Z,10.20
2017-05-29T07:16:36.798Z,9.92
2017-05-29T07:19:05.627Z,8.78
2017-05-29T07:21:34.480Z,9.62
2017-05-29T07:24:03.405Z,9.96
2017-05-29T07:26:32.281Z,12.32
2017-05-29T07:29:01.144Z,11.52
2017-05-29T07:31:29.996Z,11.46
2017-05-29T07:33:58.847Z,12.88
2017-05-29T07:36:27.706Z,9.44
2017-05-29T07:38:56.591Z,9.46
2017-05-29T07:41:25.475Z,9.28
2017-05-29T07:43:54.336Z,8.78
2017-05-29T07:46:23.192Z,9.40
2017-05-29T07:48:51.279Z,8.84
2017-05-29T07:51:20.147Z,8.56
2017-05-29T07:53:48.991Z,8.14
2017-05-29T07:56:17.854Z,8.10
2017-05-29T07:58:45.926Z,7.80
2017-05-29T08:01:15.068Z,7.66
2017-05-29T08:03:43.920Z,7.06
2017-05-29T08:06:12.776Z,7.38
2017-05-29T08:08:41.624Z,7.32
2017-05-29T08:11:10.479Z,6.96
2017-05-29T08:13:39.351Z,7.38
2017-05-29T08:16:09.211Z,5.88
2017-05-29T08:18:38.055Z,6.10
2017-05-29T08:21:06.911Z,7.04
2017-05-29T08:23:35.800Z,7.52
2017-05-29T08:26:04.647Z,6.38
2017-05-29T08:28:33.515Z,7.44
2017-05-29T08:31:02.364Z,6.66
2017-05-29T08:33:31.211Z,6.88
2017-05-29T08:36:00.112Z,6.28
2017-05-29T08:38:28.183Z,5.22
2017-05-29T08:40:57.051Z,5.30
2017-05-29T08:43:25.946Z,6.22
2017-05-29T08:45:54.916Z,6.60
2017-05-29T08:48:23.763Z,5.88
2017-05-29T08:50:51.835Z,6.22
2017-05-29T08:53:20.690Z,6.70
2017-05-29T08:55:49.551Z,5.70
2017-05-29T08:58:18.396Z,6.18
2017-05-29T09:00:47.240Z,6.48
2017-05-29T09:03:16.154Z,5.30
2017-05-29T09:05:45.005Z,7.12
2017-05-29T09:08:13.864Z,6.06
2017-05-29T09:10:41.943Z,5.90
2017-05-29T09:13:10.793Z,6.46
2017-05-29T09:15:39.637Z,5.90
2017-05-29T09:18:08.547Z,6.04
2017-05-29T09:20:37.416Z,5.82
2017-05-29T09:23:06.270Z,6.10
2017-05-29T09:25:35.153Z,7.22
2017-05-29T09:28:04.018Z,5.50
2017-05-29T09:30:32.856Z,5.88
2017-05-29T09:33:00.943Z,5.90
2017-05-29T09:35:29.785Z,5.46
2017-05-29T09:37:58.631Z,5.00
2017-05-29T09:40:27.550Z,5.10
2017-05-29T09:42:56.415Z,5.22
2017-05-29T09:45:25.259Z,5.38
2017-05-29T09:47:54.128Z,5.58
2017-05-29T09:50:22.963Z,5.54
2017-05-29T09:52:51.799Z,5.20
2017-05-29T09:55:20.688Z,5.34
2017-05-29T09:57:49.527Z,5.14
2017-05-29T10:00:18.379Z,4.78
2017-05-29T10:02:47.231Z,5.68
2017-05-29T10:05:16.084Z,5.34
2017-05-29T10:07:44.919Z,6.10
2017-05-29T10:10:13.791Z,5.34
2017-05-29T10:12:42.631Z,4.88
2017-05-29T10:15:11.467Z,5.54
2017-05-29T10:17:40.316Z,4.92
2017-05-29T10:20:09.163Z,5.22
2017-05-29T10:22:38.003Z,4.80
2017-05-29T10:25:06.844Z,4.22
2017-05-29T10:27:35.695Z,4.66
2017-05-29T10:30:04.535Z,4.70
2017-05-29T10:32:33.379Z,5.24
2017-05-29T10:35:02.228Z,4.68
2017-05-29T10:37:31.084Z,4.88
2017-05-29T10:39:59.168Z,5.54
2017-05-29T10:42:28.038Z,6.18
2017-05-29T10:44:56.911Z,7.74
2017-05-29T10:47:25.762Z,5.74
2017-05-29T10:49:54.943Z,5.78
2017-05-29T10:52:23.839Z,5.50
2017-05-29T10:54:52.682Z,6.52
2017-05-29T10:57:21.543Z,5.72
2017-05-29T10:59:50.380Z,5.98
2017-05-29T11:02:19.245Z,5.52
2017-05-29T11:04:48.232Z,7.24
2017-05-29T11:07:17.078Z,4.04
2017-05-29T11:09:45.931Z,6.64
2017-05-29T11:12:14.798Z,6.40
2017-05-29T11:14:43.666Z,4.84
2017-05-29T11:17:12.509Z,4.40
2017-05-29T11:19:41.371Z,4.98
2017-05-29T11:22:10.233Z,4.50
2017-05-29T11:24:39.074Z,5.10
2017-05-29T11:27:07.919Z,5.06
2017-05-29T11:29:36.755Z,5.18
2017-05-29T11:32:05.603Z,4.90
2017-05-29T11:34:34.460Z,4.76
2017-05-29T11:37:03.307Z,5.10
2017-05-29T11:39:32.154Z,4.12
2017-05-29T11:42:00.299Z,4.28
2017-05-29T11:44:29.164Z,5.52
2017-05-29T11:46:57.999Z,4.46
2017-05-29T11:49:26.839Z,5.76
2017-05-29T11:51:55.766Z,5.10
2017-05-29T11:54:25.284Z,5.78
2017-05-29T11:56:54.134Z,4.94
2017-05-29T11:59:22.980Z,9.50
2017-05-29T12:01:51.858Z,5.14
2017-05-29T12:04:30.631Z,6.16
2017-05-29T12:06:59.487Z,4.04
2017-05-29T12:09:28.335Z,4.46
2017-05-29T12:11:57.227Z,4.70
2017-05-29T12:14:26.072Z,5.08
2017-05-29T12:16:54.911Z,4.36
2017-05-29T12:19:23.751Z,4.08
2017-05-29T12:21:52.592Z,4.64
2017-05-29T12:24:21.463Z,4.32
2017-05-29T12:26:50.307Z,4.50
2017-05-29T12:29:19.142Z,5.00
2017-05-29T12:31:48.695Z,4.26
2017-05-29T12:34:17.532Z,4.00
2017-05-29T12:36:46.475Z,3.72
2017-05-29T12:39:15.307Z,4.18
2017-05-29T12:41:44.162Z,5.18
2017-05-29T12:44:12.992Z,4.78
2017-05-29T12:46:41.830Z,4.76
2017-05-29T12:49:09.921Z,5.40
2017-05-29T12:51:38.758Z,4.52
2017-05-29T12:54:07.607Z,4.64
2017-05-29T12:56:36.439Z,5.08
2017-05-29T12:59:05.296Z,4.84
2017-05-29T13:01:34.138Z,5.28
2017-05-29T13:04:02.976Z,5.98
2017-05-29T13:06:31.885Z,5.56
2017-05-29T13:09:00.831Z,5.30
2017-05-29T13:11:29.685Z,4.96
2017-05-29T13:13:58.531Z,5.28
2017-05-29T13:16:27.383Z,5.58
2017-05-29T13:18:56.224Z,5.50
2017-05-29T13:21:25.059Z,4.90
2017-05-29T13:23:54.035Z,5.24
2017-05-29T13:26:22.867Z,5.98
2017-05-29T13:28:50.956Z,4.74
2017-05-29T13:31:19.809Z,5.92
2017-05-29T13:33:47.944Z,5.42
2017-05-29T13:36:16.783Z,5.28
2017-05-29T13:38:44.868Z,6.14
2017-05-29T13:41:13.711Z,5.80
2017-05-29T13:43:42.595Z,7.08
2017-05-29T13:46:11.427Z,6.28
2017-05-29T13:48:40.264Z,6.38
2017-05-29T13:51:09.111Z,6.86
2017-05-29T13:53:37.190Z,6.80
2017-05-29T13:56:06.026Z,6.96
2017-05-29T13:58:34.876Z,6.94
2017-05-29T14:01:03.906Z,6.30
2017-05-29T14:03:32.763Z,5.58
2017-05-29T14:06:01.599Z,5.84
2017-05-29T14:08:30.467Z,5.64
2017-05-29T14:10:59.311Z,6.36
2017-05-29T14:13:28.147Z,5.86
2017-05-29T14:15:57.081Z,5.00
2017-05-29T14:18:25.927Z,5.40
2017-05-29T14:20:54.775Z,5.66
2017-05-29T14:23:23.607Z,5.62
2017-05-29T14:25:52.476Z,5.64
2017-05-29T14:28:21.307Z,5.42
2017-05-29T14:30:50.148Z,5.84
2017-05-29T14:33:18.997Z,5.96
2017-05-29T14:35:47.875Z,4.98
2017-05-29T14:38:16.722Z,5.76
2017-05-29T14:40:44.799Z,6.18
2017-05-29T14:43:14.817Z,5.82
2017-05-29T14:45:43.656Z,6.70
2017-05-29T14:48:12.507Z,5.98
2017-05-29T14:50:40.587Z,6.38
2017-05-29T14:53:09.476Z,5.62
2017-05-29T14:55:38.327Z,5.78
2017-05-29T14:58:07.172Z,6.40
2017-05-29T15:00:36.032Z,5.92
2017-05-29T15:03:04.867Z,6.18
2017-05-29T15:05:33.712Z,6.26
2017-05-29T15:08:02.555Z,5.76
2017-05-29T15:10:31.395Z,6.04
2017-05-29T15:12:59.699Z,6.30
2017-05-29T15:15:28.563Z,5.92
2017-05-29T15:17:56.652Z,5.50
2017-05-29T15:20:25.487Z,5.70
2017-05-29T15:22:54.323Z,6.70
2017-05-29T15:25:23.167Z,6.34
2017-05-29T15:27:52.019Z,6.20
2017-05-29T15:30:20.903Z,5.16
2017-05-29T15:32:49.733Z,6.76
2017-05-29T15:35:18.683Z,6.30
2017-05-29T15:37:47.516Z,5.82
2017-05-29T15:40:16.463Z,6.08
2017-05-29T15:42:45.374Z,6.64
2017-05-29T15:45:14.239Z,6.40
2017-05-29T15:47:42.323Z,6.46
2017-05-29T15:50:11.160Z,6.00
2017-05-29T15:52:40.033Z,6.18
2017-05-29T15:55:08.860Z,5.66
2017-05-29T15:57:37.709Z,6.06
2017-05-29T16:00:06.559Z,5.70
2017-05-29T16:02:35.395Z,6.52
2017-05-29T16:05:04.239Z,6.16
2017-05-29T16:07:33.070Z,6.20
2017-05-29T16:10:01.946Z,6.48
2017-05-29T16:12:30.011Z,5.60
2017-05-29T16:14:58.909Z,6.70
2017-05-29T16:17:27.087Z,6.08
2017-05-29T16:19:55.952Z,6.14
2017-05-29T16:22:24.799Z,6.98
2017-05-29T16:24:53.635Z,6.40
2017-05-29T16:27:21.755Z,5.46
2017-05-29T16:29:50.595Z,6.28
2017-05-29T16:32:18.667Z,7.24
2017-05-29T16:34:47.528Z,6.62
2017-05-29T16:37:16.376Z,6.38
2017-05-29T16:39:45.221Z,5.80
2017-05-29T16:42:14.057Z,5.58
2017-05-29T16:44:42.932Z,5.82
2017-05-29T16:47:11.007Z,6.64
2017-05-29T16:49:39.849Z,6.96
2017-05-29T16:52:08.696Z,6.34
2017-05-29T16:54:37.539Z,6.26
2017-05-29T16:57:06.382Z,5.94
2017-05-29T16:59:35.219Z,6.16
2017-05-29T17:02:04.066Z,5.98
2017-05-29T17:04:32.905Z,6.78
2017-05-29T17:07:02.139Z,6.22
2017-05-29T17:09:30.991Z,6.40
2017-05-29T17:11:59.826Z,6.34
2017-05-29T17:14:28.667Z,7.06
2017-05-29T17:16:57.499Z,6.06
2017-05-29T17:19:26.374Z,6.80
2017-05-29T17:21:55.220Z,6.70
2017-05-29T17:24:24.084Z,7.04
2017-05-29T17:26:52.927Z,6.54
2017-05-29T17:29:21.764Z,7.06
2017-05-29T17:31:50.615Z,7.28
2017-05-29T17:34:19.456Z,7.12
2017-05-29T17:36:48.323Z,6.82
2017-05-29T17:39:16.397Z,6.20
2017-05-29T17:41:45.451Z,6.70
2017-05-29T17:44:15.234Z,6.44
2017-05-29T17:46:44.075Z,7.02
2017-05-29T17:49:12.168Z,6.98
2017-05-29T17:51:41.002Z,7.30
2017-05-29T17:54:09.872Z,6.80
2017-05-29T17:56:38.714Z,7.00
2017-05-29T17:59:07.560Z,6.78
2017-05-29T18:01:36.404Z,7.52
2017-05-29T18:04:05.239Z,7.96
2017-05-29T18:06:34.087Z,8.00
2017-05-29T18:09:02.922Z,7.22
2017-05-29T18:11:31.797Z,6.74
2017-05-29T18:14:00.651Z,6.94
2017-05-29T18:16:30.021Z,6.60
2017-05-29T18:18:58.867Z,5.86
2017-05-29T18:21:27.714Z,6.80
2017-05-29T18:23:56.555Z,6.52
2017-05-29T18:26:25.420Z,6.60
2017-05-29T18:28:54.327Z,7.30
2017-05-29T18:31:22.443Z,8.98
2017-05-29T18:33:51.280Z,8.42
2017-05-29T18:36:20.158Z,11.52
2017-05-29T18:38:48.999Z,11.90
2017-05-29T18:41:17.851Z,10.86
2017-05-29T18:43:45.931Z,9.56
2017-05-29T18:46:14.803Z,9.62
2017-05-29T18:48:42.907Z,8.54
2017-05-29T18:51:11.763Z,9.64
2017-05-29T18:53:40.611Z,10.42
2017-05-29T18:56:09.466Z,10.00
2017-05-29T18:58:37.543Z,9.98
2017-05-29T19:01:06.395Z,12.30
2017-05-29T19:03:36.667Z,13.44
2017-05-29T19:06:05.536Z,11.00
2017-05-29T19:08:33.731Z,18.92
2017-05-29T19:11:02.637Z,22.86
2017-05-29T19:13:31.662Z,16.80
2017-05-29T19:16:01.408Z,12.24
2017-05-29T19:18:32.165Z,13.40
2017-05-29T19:21:02.212Z,10.48
2017-05-29T19:23:33.916Z,9.52
2017-05-29T19:26:03.912Z,9.14
2017-05-29T19:28:34.047Z,9.32
2017-05-29T19:31:03.257Z,11.34
2017-05-29T19:33:49.995Z,14.30
2017-05-29T19:36:21.612Z,12.94
2017-05-29T19:38:51.860Z,13.40
2017-05-29T19:41:24.244Z,11.14
2017-05-29T19:43:56.181Z,11.86
2017-05-29T19:46:25.427Z,13.22
2017-05-29T19:48:59.264Z,15.06
2017-05-29T19:51:29.039Z,24.90
2017-05-29T19:54:10.879Z,14.26
2017-05-29T19:56:39.842Z,14.58
2017-05-29T19:59:10.407Z,11.20
2017-05-29T20:01:42.279Z,10.40
2017-05-29T20:04:22.160Z,13.42
2017-05-29T20:07:04.313Z,12.88
2017-05-29T20:09:35.642Z,15.68
2017-05-29T20:12:04.771Z,11.70
2017-05-29T20:14:35.591Z,13.84
2017-05-29T20:17:08.417Z,13.88
2017-05-29T20:19:39.148Z,11.88
2017-05-29T20:22:11.837Z,11.20
2017-05-29T20:24:52.411Z,11.52
2017-05-29T20:27:23.689Z,10.20
2017-05-29T20:29:56.922Z,9.40
2017-05-29T20:32:28.448Z,9.74
2017-05-29T20:35:10.727Z,12.12
2017-05-29T20:38:03.380Z,9.94
2017-05-29T20:40:32.276Z,11.82
2017-05-29T20:43:01.211Z,12.12
2017-05-29T20:45:30.072Z,9.78
2017-05-29T20:47:58.915Z,10.72
2017-05-29T20:50:27.774Z,11.12
2017-05-29T20:52:56.620Z,11.66
2017-05-29T20:55:25.540Z,11.00
2017-05-29T20:57:53.628Z,13.30
2017-05-29T21:00:22.467Z,15.50
2017-05-29T21:02:52.002Z,14.22
2017-05-29T21:05:20.843Z,13.28
2017-05-29T21:07:49.715Z,14.48
2017-05-29T21:10:17.787Z,15.90
2017-05-29T21:12:46.667Z,14.18
2017-05-29T21:15:15.563Z,12.90
2017-05-29T21:17:44.454Z,12.42
2017-05-29T21:20:13.309Z,11.34
2017-05-29T21:22:42.150Z,11.42
2017-05-29T21:25:10.995Z,11.54
2017-05-29T21:27:39.854Z,12.50
2017-05-29T21:30:08.731Z,12.82
2017-05-29T21:32:37.570Z,13.10
2017-05-29T21:35:06.410Z,16.38
2017-05-29T21:37:35.271Z,13.20
2017-05-29T21:40:04.151Z,16.64
2017-05-29T21:42:32.241Z,14.40
2017-05-29T21:45:01.078Z,14.38
2017-05-29T21:47:29.931Z,19.50
2017-05-29T21:49:58.837Z,13.04
2017-05-29T21:52:27.681Z,13.48
2017-05-29T21:54:56.627Z,14.72
2017-05-29T21:57:25.483Z,15.18
2017-05-29T21:59:54.336Z,14.62
2017-05-29T22:02:23.183Z,14.96
2017-05-29T22:04:52.050Z,16.06
2017-05-29T22:07:21.019Z,12.54
2017-05-29T22:09:49.863Z,16.46
2017-05-29T22:12:18.735Z,15.16
2017-05-29T22:14:47.595Z,17.16
2017-05-29T22:17:16.451Z,20.30
2017-05-29T22:19:45.296Z,14.12
2017-05-29T22:22:14.169Z,17.60
2017-05-29T22:24:43.061Z,15.90
2017-05-29T22:27:11.895Z,13.84
2017-05-29T22:29:40.735Z,15.90
2017-05-29T22:32:09.587Z,15.06
2017-05-29T22:34:38.440Z,15.28
2017-05-29T22:37:07.283Z,15.32
2017-05-29T22:39:36.134Z,13.98
2017-05-29T22:42:04.988Z,13.44
2017-05-29T22:44:33.826Z,15.74
2017-05-29T22:47:02.675Z,15.44
2017-05-29T22:49:31.523Z,14.32
2017-05-29T22:52:00.370Z,14.86
2017-05-29T22:54:29.214Z,14.92
2017-05-29T22:56:58.075Z,14.58
2017-05-29T22:59:26.914Z,14.76
2017-05-29T23:01:55.761Z,15.60
2017-05-29T23:04:24.739Z,14.66
2017-05-29T23:06:53.579Z,14.04
2017-05-29T23:09:22.433Z,14.30
2017-05-29T23:11:51.275Z,15.58
2017-05-29T23:14:20.127Z,16.20
2017-05-29T23:16:49.011Z,14.56
2017-05-29T23:19:17.848Z,15.10
2017-05-29T23:21:46.698Z,14.86
2017-05-29T23:24:15.540Z,15.12
2017-05-29T23:26:44.397Z,15.66
2017-05-29T23:29:13.239Z,14.38
2017-05-29T23:31:42.112Z,15.40
2017-05-29T23:34:10.960Z,14.38
2017-05-29T23:36:39.799Z,14.28
2017-05-29T23:39:08.644Z,15.32
2017-05-29T23:41:37.483Z,14.92
2017-05-29T23:44:06.335Z,13.46
2017-05-29T23:46:35.180Z,15.88
2017-05-29T23:49:04.031Z,15.58
2017-05-29T23:51:32.891Z,16.86
2017-05-29T23:54:01.738Z,17.00
2017-05-29T23:56:30.588Z,15.64
2017-05-29T23:58:59.435Z,16.46
